Flight Track Log - Related Links

Times and Time Zones

All times are in EDT time to prevent confusion due to time zone crossing. See the JBU1103 flight status page for this flight to view local times or setup timezone preferences in your user account.


Time Position Orientation Groundspeed Altitude Reporting Facility
EDT Latitude Longitude Course Direction KTS MPH feet Rate Location/Type
Mon 10:02:20 PM 40.6333 -73.8667 221° Southwest 213 245 2,200  Level New York TRACON
Mon 10:04:00 PM 40.2806 -73.6166 223° Southwest  Level Estimated
Mon 10:04:14 PM 40.5342 -73.7639 142° Southeast 254 292 7,200  Level New York Center
Mon 10:05:00 PM 40.1608 -73.5629 220° Southwest  Level Estimated
Mon 10:05:13 PM 40.4758 -73.6822 133° Southeast 297 342 10,100  Level New York Center
Mon 10:06:00 PM 40.0345 -73.5748 184° South  Level FlightAware Approximate
Mon 10:06:14 PM 40.4111 -73.6058 138° Southeast 335 386 11,400  Level New York Center
Mon 10:07:00 PM 39.9148 -73.5210 221° Southwest  Level Estimated
Mon 10:07:14 PM 40.3217 -73.5069 140° Southeast 371 427 13,800  Level New York Center
Mon 10:08:13 PM 40.2236 -73.5111 182° South 375 432 15,900 1,949 Climbing New York Center
Mon 10:10:31 PM 39.9783 -73.6042 196° South 407 468 20,200 1,797 Climbing Washington Center
Mon 10:11:30 PM 39.8775 -73.6800 210° Southwest 407 468 21,800 1,714 Climbing Washington Center
Mon 10:12:30 PM 39.7722 -73.7558 209° Southwest 426 490 23,600 1,537 Climbing Washington Center
Mon 10:13:31 PM 39.6672 -73.8339 210° Southwest 432 497 24,900 1,210 Climbing Washington Center
Mon 10:14:29 PM 39.5578 -73.9119 209° Southwest 444 511 26,000 1,169 Climbing Washington Center
Mon 10:15:29 PM 39.4444 -73.9953 210° Southwest 456 525 27,200 1,190 Climbing Washington Center
Mon 10:16:30 PM 39.3308 -74.0756 209° Southwest 461 531 28,400 1,091 Climbing Washington Center
Mon 10:17:30 PM 39.2153 -74.1583 209° Southwest 466 536 29,400 1,190 Climbing Washington Center
Mon 10:18:31 PM 39.0994 -74.2408 209° Southwest 472 543 30,800 1,563 Climbing Washington Center
Mon 10:19:29 PM 38.9858 -74.3258 210° Southwest 472 543 32,500 1,450 Climbing Washington Center
Mon 10:20:31 PM 38.8719 -74.4050 208° Southwest 472 543 33,700 1,250 Climbing Washington Center
Mon 10:21:29 PM 38.7642 -74.4842 210° Southwest 467 537 35,000 1,119 Climbing Washington Center
Mon 10:22:29 PM 38.6544 -74.5575 208° Southwest 456 525 35,900 446 Climbing Washington Center
Mon 10:23:30 PM 38.5486 -74.6306 208° Southwest 451 519 35,900  Level Washington Center
Mon 10:24:31 PM 38.4389 -74.7064 208° Southwest 451 519 35,900  Level Washington Center
Mon 10:25:29 PM 38.3308 -74.7817 209° Southwest 451 519 35,900  Level Washington Center
Mon 10:26:30 PM 38.2167 -74.8675 211° Southwest 440 506 35,900  Level Washington Center
Mon 10:27:30 PM 38.1086 -74.9425 209° Southwest 440 506 35,900  Level Washington Center
Mon 10:28:29 PM 38.0006 -75.0147 208° Southwest 440 506 35,900  Level Washington Center
Mon 10:29:29 PM 37.8906 -75.0867 207° Southwest 440 506 35,900  Level Washington Center
Mon 10:30:30 PM 37.7803 -75.1661 210° Southwest 445 512 35,900 49 Level Washington Center
Mon 10:31:31 PM 37.6700 -75.2403 208° Southwest 445 512 36,000  Climbing Washington Center
Mon 10:32:29 PM 37.5639 -75.3142 209° Southwest 450 518 35,900 -50 Descending Washington Center
Mon 10:33:30 PM 37.4533 -75.3878 208° Southwest 450 518 35,900  Level Washington Center
Mon 10:34:30 PM 37.3431 -75.4611 208° Southwest 450 518 35,900 202 Level Washington Center
Mon 10:35:29 PM 37.2408 -75.5111 201° Southwest 450 518 36,300 496 Climbing Washington Center
Mon 10:36:31 PM 37.1072 -75.4722 167° South 450 518 36,900 221 Climbing Washington Center
Mon 10:38:12 PM 36.8850 -75.3108 150° Southeast 481 554 36,900  Level New York Center
Mon 10:39:11 PM 36.7631 -75.2258 151° Southeast 495 570 36,900  Level New York Center
Mon 10:40:12 PM 36.6431 -75.1436 151° Southeast 502 578 36,900  Level New York Center
Mon 10:41:12 PM 36.5167 -75.0642 153° Southeast 502 578 36,900  Level New York Center
Mon 10:42:12 PM 36.3922 -74.9872 154° Southeast 502 578 36,900  Level New York Center
Mon 10:43:13 PM 36.2719 -74.9111 153° Southeast 496 571 36,900  Level New York Center
Mon 10:44:13 PM 36.1472 -74.8325 153° Southeast 496 571 36,900  Level New York Center
Mon 10:45:13 PM 36.0228 -74.7539 153° Southeast 496 571 36,900  Level New York Center
Mon 10:46:13 PM 35.9000 -74.6783 153° Southeast 496 571 36,900  Level New York Center
Mon 10:47:14 PM 35.7753 -74.6056 155° Southeast 496 571 36,900  Level New York Center
Mon 10:48:11 PM 35.6525 -74.5278 153° Southeast 496 571 36,900  Level New York Center
Mon 10:49:13 PM 35.5278 -74.4528 154° Southeast 496 571 36,900  Level New York Center
Mon 10:50:14 PM 35.4092 -74.3733 151° Southeast 496 571 36,900  Level New York Center
Mon 10:51:14 PM 35.2864 -74.3017 155° Southeast 496 571 36,900  Level New York Center
Mon 10:52:12 PM 35.1592 -74.2272 154° Southeast 502 578 36,900  Level New York Center
Mon 10:53:12 PM 35.0383 -74.1483 152° Southeast 502 578 36,900  Level New York Center
Mon 10:54:13 PM 34.9133 -74.0747 154° Southeast 502 578 36,900  Level New York Center
Mon 10:55:13 PM 34.7903 -73.9989 153° Southeast 497 572 36,900  Level New York Center
Mon 10:56:13 PM 34.6628 -73.9281 155° Southeast 502 578 36,900  Level New York Center
Mon 10:57:13 PM 34.5442 -73.8475 151° Southeast 497 572 36,900  Level New York Center
Mon 10:58:14 PM 34.4144 -73.7822 157° South 497 572 36,900  Level New York Center
Mon 10:59:12 PM 34.2886 -73.7222 158° South 497 572 36,900  Level New York Center
Mon 11:00:13 PM 34.1564 -73.6772 164° South 491 565 36,900  Level New York Center
Mon 11:01:12 PM 34.0256 -73.6547 165° South 486 559 36,900 92 Level New York Center
Mon 11:01:18 PM 34.3667 -73.7667 165° South 473 544 37,000 Climbing New York Oceanic (ODAPS)
Mon 11:03:00 PM 33.8123 -73.5812 164° South  Level FlightAware Approximate
Mon 11:10:00 PM 32.9807 -73.3060 166° South  Level FlightAware Approximate
Mon 11:11:00 PM 32.8613 -73.2697 166° South  Level FlightAware Approximate
Mon 11:12:00 PM 32.7419 -73.2334 166° South  Level FlightAware Approximate
Mon 11:13:00 PM 32.6225 -73.1972 166° South  Level FlightAware Approximate
Mon 11:14:00 PM 32.5031 -73.1611 166° South  Level FlightAware Approximate
Mon 11:15:00 PM 32.3837 -73.1252 166° South  Level FlightAware Approximate
Mon 11:16:00 PM 32.2643 -73.0889 165° South  Level FlightAware Approximate
Mon 11:17:00 PM 32.1451 -73.0520 165° South  Level FlightAware Approximate
Mon 11:18:00 PM 32.0259 -73.0151 165° South  Level FlightAware Approximate
Mon 11:19:00 PM 31.9067 -72.9783 165° South  Level FlightAware Approximate
Mon 11:20:00 PM 31.7875 -72.9417 165° South  Level FlightAware Approximate
Mon 11:21:00 PM 31.6682 -72.9051 165° South  Level FlightAware Approximate
Mon 11:22:00 PM 31.5490 -72.8686 165° South  Level FlightAware Approximate
Mon 11:23:00 PM 31.4297 -72.8322 165° South  Level FlightAware Approximate
Mon 11:24:00 PM 31.3104 -72.7959 165° South  Level FlightAware Approximate
Mon 11:25:00 PM 31.1912 -72.7597 165° South  Level FlightAware Approximate
Mon 11:26:00 PM 31.0719 -72.7236 165° South  Level FlightAware Approximate
Mon 11:27:00 PM 30.9526 -72.6876 165° South  Level FlightAware Approximate
Mon 11:28:00 PM 30.8333 -72.6516 165° South  Level FlightAware Approximate
Mon 11:29:00 PM 30.7139 -72.6158 166° South  Level FlightAware Approximate
Mon 11:30:00 PM 30.5946 -72.5800 166° South  Level FlightAware Approximate
Mon 11:31:00 PM 30.4759 -72.5419 164° South  Level FlightAware Approximate
Mon 11:32:00 PM 30.3574 -72.5023 164° South  Level FlightAware Approximate
Mon 11:33:00 PM 30.2390 -72.4629 164° South  Level FlightAware Approximate
Mon 11:34:00 PM 30.1201 -72.4258 168° South  Level FlightAware Approximate
Mon 11:35:00 PM 29.9996 -72.3957 168° South  Level FlightAware Approximate
Mon 11:36:00 PM 29.8792 -72.3655 166° South  Level FlightAware Approximate
Mon 11:36:10 PM 30.1667 -72.4500 166° South 476 548 37,000  Level New York Oceanic (ODAPS)
Mon 11:37:00 PM 29.7597 -72.3306 166° South  Level FlightAware Approximate
Mon 11:38:00 PM 29.6403 -72.2959 166° South  Level FlightAware Approximate
Mon 11:39:00 PM 29.5208 -72.2613 166° South  Level FlightAware Approximate
Mon 11:40:00 PM 29.4013 -72.2267 166° South  Level FlightAware Approximate
Mon 11:41:00 PM 29.2818 -72.1922 166° South  Level FlightAware Approximate
Mon 11:42:00 PM 28.6182 -72.0055 166° South 476 548 37,000  Level FlightAware Transoceanic
Mon 11:43:00 PM 28.4891 -71.9691 166° South 476 548 37,000  Level FlightAware Transoceanic
Mon 11:44:00 PM 28.3600 -71.9327 166° South 476 548 37,000  Level FlightAware Transoceanic
Mon 11:45:00 PM 28.2309 -71.8965 166° South 476 548 37,000  Level FlightAware Transoceanic
Mon 11:46:00 PM 28.1018 -71.8603 166° South 476 548 37,000  Level FlightAware Transoceanic
Mon 11:47:00 PM 27.9726 -71.8242 166° South 476 548 37,000  Level FlightAware Transoceanic
Mon 11:48:00 PM 27.8435 -71.7882 166° South 476 548 37,000  Level FlightAware Transoceanic
Mon 11:49:00 PM 27.7143 -71.7523 166° South 476 548 37,000  Level FlightAware Transoceanic
Mon 11:50:00 PM 27.5852 -71.7164 166° South 476 548 37,000  Level FlightAware Transoceanic
Mon 11:51:00 PM 27.4560 -71.6807 166° South 476 548 37,000  Level FlightAware Transoceanic
Mon 11:52:00 PM 27.3268 -71.6450 166° South 476 548 37,000  Level FlightAware Transoceanic
Mon 11:53:00 PM 27.1976 -71.6095 166° South 476 548 37,000  Level FlightAware Transoceanic
Mon 11:54:00 PM 27.0684 -71.5740 166° South 476 548 37,000  Level FlightAware Transoceanic
Mon 11:55:00 PM 26.9392 -71.5385 166° South 476 548 37,000  Level FlightAware Transoceanic
Mon 11:56:00 PM 26.8100 -71.5032 166° South 476 548 37,000  Level FlightAware Transoceanic
Mon 11:57:00 PM 26.6807 -71.4679 166° South 476 548 37,000  Level FlightAware Transoceanic
Mon 11:58:00 PM 26.5515 -71.4328 166° South 476 548 37,000  Level FlightAware Transoceanic
Mon 11:59:00 PM 26.4223 -71.3977 166° South 476 548 37,000  Level FlightAware Transoceanic
Tue 12:00:00 AM 26.2930 -71.3626 166° South 476 548 37,000  Level FlightAware Transoceanic
Tue 12:01:00 AM 26.1637 -71.3277 166° South 476 548 37,000  Level FlightAware Transoceanic
Tue 12:02:00 AM 26.0345 -71.2928 166° South 476 548 37,000  Level FlightAware Transoceanic
Tue 12:03:00 AM 25.9052 -71.2581 166° South 476 548 37,000  Level FlightAware Transoceanic
Tue 12:04:00 AM 25.7759 -71.2234 166° South 476 548 37,000  Level FlightAware Transoceanic
Tue 12:05:00 AM 25.6466 -71.1887 166° South 476 548 37,000  Level FlightAware Transoceanic
Tue 12:06:00 AM 25.5173 -71.1542 166° South 476 548 37,000 -53 Level FlightAware Transoceanic
Tue 12:06:53 AM 25.5103 -71.1800 175° South 448 516 36,900  Descending Miami Center
Tue 12:07:00 AM 25.3880 -71.1197 166° South 476 548 37,000  Climbing FlightAware Transoceanic
Tue 12:07:52 AM 25.3761 -71.1656 174° South 459 528 36,900  Descending Miami Center
Tue 12:08:00 AM 25.2587 -71.0853 166° South 476 548 37,000 100 Climbing FlightAware Transoceanic
Tue 12:08:52 AM 25.2486 -71.1119 159° South 469 540 37,000  Level Miami Center
Tue 12:09:00 AM 25.1293 -71.0509 166° South 476 548 37,000  Level FlightAware Transoceanic
Tue 12:09:52 AM 25.1203 -71.0836 169° South 469 540 37,000  Level Miami Center
Tue 12:10:00 AM 25.0000 -71.0167 175° South 476 548 37,000  Level FlightAware Transoceanic
Tue 12:10:52 AM 24.9897 -71.0556 169° South 469 540 37,000  Level Miami Center
Tue 12:11:00 AM 24.8667 -71.0040 175° South 476 548 37,000  Level FlightAware Transoceanic
Tue 12:11:54 AM 24.8597 -71.0411 174° South 475 547 37,000  Level Miami Center
Tue 12:12:00 AM 24.7333 -70.9914 175° South 476 548 37,000  Level FlightAware Transoceanic
Tue 12:12:53 AM 24.7481 -70.9617 147° Southeast 455 524 37,000 -54 Level Miami Center
Tue 12:13:52 AM 24.6442 -70.8686 141° Southeast 460 529 36,900 -50 Descending Miami Center
Tue 12:14:54 AM 24.5386 -70.7936 147° Southeast 460 529 36,900  Level Miami Center
Tue 12:15:53 AM 24.4322 -70.6917 139° Southeast 466 536 36,900  Level Miami Center
Tue 12:16:52 AM 24.3314 -70.6286 150° Southeast 472 543 36,900 50 Level Miami Center
Tue 12:17:53 AM 24.2258 -70.5494 146° Southeast 465 535 37,000 49 Climbing Miami Center
Tue 12:18:54 AM 24.1219 -70.4617 142° Southeast 465 535 37,000  Level Miami Center
Tue 12:19:53 AM 24.0186 -70.3872 147° Southeast 465 535 37,000  Level Miami Center
Tue 12:20:53 AM 23.9103 -70.2931 142° Southeast 471 542 37,000  Level Miami Center
Tue 12:21:52 AM 23.8064 -70.2144 145° Southeast 471 542 37,000  Level Miami Center
Tue 12:22:53 AM 23.7006 -70.1317 144° Southeast 466 536 37,000  Level Miami Center
Tue 12:23:54 AM 23.5967 -70.0489 144° Southeast 466 536 37,000  Level Miami Center
Tue 12:24:54 AM 23.4931 -69.9708 145° Southeast 466 536 37,000  Level Miami Center
Tue 12:25:52 AM 23.3892 -69.8906 145° Southeast 466 536 37,000 -50 Level Miami Center
Tue 12:26:53 AM 23.2850 -69.8061 143° Southeast 466 536 36,900  Descending Miami Center
Tue 12:27:52 AM 23.1811 -69.7283 145° Southeast 471 542 37,000  Climbing Miami Center
Tue 12:28:52 AM 23.0728 -69.6419 144° Southeast 466 536 36,900 -50 Descending Miami Center
Tue 12:29:52 AM 22.9711 -69.5664 146° Southeast 460 529 36,900 50 Level Miami Center
Tue 12:30:52 AM 22.8672 -69.4892 146° Southeast 460 529 37,000 50 Climbing Miami Center
Tue 12:31:52 AM 22.7631 -69.4050 143° Southeast 460 529 37,000  Level Miami Center
Tue 12:32:53 AM 22.6547 -69.3236 145° Southeast 466 536 37,000  Level Miami Center
Tue 12:33:52 AM 22.5528 -69.2442 144° Southeast 471 542 37,000  Level Miami Center
Tue 12:34:53 AM 22.4489 -69.1653 145° Southeast 465 535 37,000 -50 Level Miami Center
Tue 12:35:53 AM 22.3406 -69.0842 145° Southeast 465 535 36,900  Descending Miami Center
Tue 12:36:53 AM 22.2406 -69.0050 144° Southeast 466 536 37,000 50 Climbing Miami Center
Tue 12:37:54 AM 22.1319 -68.9219 145° Southeast 466 536 37,000  Level Miami Center
Tue 12:38:54 AM 22.0278 -68.8433 145° Southeast 466 536 37,000  Level Miami Center
Tue 12:39:52 AM 21.9128 -68.7589 146° Southeast 466 536 37,000 -50 Level Miami Center
Tue 12:40:53 AM 21.8106 -68.6781 144° Southeast 466 536 36,900 -50 Descending Miami Center
Tue 12:41:53 AM 21.7108 -68.6017 145° Southeast 466 536 36,900 50 Level Miami Center
Tue 12:42:53 AM 21.6044 -68.5214 145° Southeast 466 536 37,000 49 Climbing Miami Center
Tue 12:43:55 AM 21.4981 -68.4433 146° Southeast 466 536 37,000  Level Miami Center
Tue 12:44:52 AM 21.3958 -68.3653 145° Southeast 471 542 37,000  Level Miami Center
Tue 12:45:53 AM 21.2936 -68.2853 144° Southeast 465 535 37,000 -50 Level Miami Center
Tue 12:46:52 AM 21.1872 -68.2075 146° Southeast 465 535 36,900 -50 Descending Miami Center
Tue 12:47:52 AM 21.0828 -68.1300 145° Southeast 465 535 36,900 50 Level Miami Center
Tue 12:48:52 AM 20.9783 -68.0503 145° Southeast 465 535 37,000 50 Climbing Miami Center
Tue 12:49:52 AM 20.8719 -67.9708 145° Southeast 471 542 37,000  Level Miami Center
Tue 12:50:52 AM 20.7678 -67.8981 147° Southeast 464 534 37,000  Level Miami Center
Tue 12:51:52 AM 20.6633 -67.8186 145° Southeast 464 534 37,000 -49 Level Miami Center
Tue 12:52:54 AM 20.5608 -67.7392 144° Southeast 464 534 36,900 -50 Descending Miami Center
Tue 12:53:52 AM 20.4544 -67.6644 147° Southeast 464 534 36,900 55 Level Miami Center
Tue 12:54:43 AM 20.3500 -67.5833 144° Southeast 460 529 37,000 54 Climbing San Juan Center
Tue 12:55:43 AM 20.2500 -67.5167 148° Southeast 450 518 37,000  Level San Juan Center
Tue 12:56:44 AM 20.1500 -67.4333 142° Southeast 450 518 37,000  Level San Juan Center
Tue 12:57:44 AM 20.0333 -67.3667 152° Southeast 450 518 37,000 -1,050 Level San Juan Center
Tue 12:58:44 AM 19.9333 -67.2833 142° Southeast 460 529 34,900 -2,350 Descending San Juan Center
Tue 12:59:44 AM 19.8333 -67.2167 148° Southeast 450 518 32,300 -2,800 Descending San Juan Center
Tue 01:00:44 AM 19.7167 -67.1333 146° Southeast 460 529 29,300 -2,750 Descending San Juan Center
Tue 01:01:44 AM 19.6167 -67.0500 142° Southeast 460 529 26,800 -2,628 Descending San Juan Center
Tue 01:02:45 AM 19.5167 -66.9833 148° Southeast 450 518 24,000 -2,579 Descending San Juan Center
Tue 01:03:45 AM 19.4167 -66.9000 142° Southeast 440 506 21,600 -2,500 Descending San Juan Center
Tue 01:04:45 AM 19.3167 -66.8333 148° Southeast 430 495 19,000 -2,450 Descending San Juan Center
Tue 01:05:45 AM 19.2167 -66.7667 148° Southeast 420 483 16,700 -2,350 Descending San Juan Center
Tue 01:06:45 AM 19.1167 -66.7000 148° Southeast 400 460 14,300 -2,450 Descending San Juan Center
Tue 01:07:45 AM 19.0333 -66.6333 143° Southeast 370 426 11,800 -1,884 Descending San Juan Center
Tue 01:08:46 AM 18.9500 -66.5667 143° Southeast 340 391 10,500 -950 Descending San Juan Center
Tue 01:09:45 AM 18.8833 -66.5167 145° Southeast 300 345 9,900 -1,059 Descending San Juan Center
Tue 01:10:45 AM 18.8167 -66.4667 145° Southeast 290 334 8,400 -1,289 Descending San Juan Center
Tue 01:11:46 AM 18.7500 -66.4167 145° Southeast 280 322 7,300 -1,190 Descending San Juan Center
Tue 01:12:46 AM 18.7000 -66.3667 137° Southeast 270 311 6,000 -1,300 Descending San Juan Center
Tue 01:13:46 AM 18.6500 -66.3167 137° Southeast 270 311 4,700 -950 Descending San Juan Center
Tue 01:14:46 AM 18.6000 -66.2500 128° Southeast 270 311 4,100 -850 Descending San Juan Center
Tue 01:15:46 AM 18.5500 -66.2000 137° Southeast 260 299 3,000 -550 Descending San Juan Center
Tue 01:16:46 AM 18.5000 -66.1667 148° Southeast 210 242 3,000 -400 Level San Juan Center
Tue 01:17:46 AM 18.4667 -66.1167 125° Southeast 180 207 2,200 -744 Descending San Juan Center
Tue 01:18:47 AM 18.4333 -66.0833 137° Southeast 130 150 1,500 -694 Descending San Juan Center
Tue 01:19:47 AM 18.4333 -66.0500 90° East 120 138 800 -650 Descending San Juan Center
Tue 01:20:47 AM 18.4333 -66.0167 90° East 120 138 200 -600 Descending San Juan Center

Login

Don't have an account? Register now (free) for customized features, flight alerts, and more!